createdAt,value
2019-06-10T00:02:07.123Z,4.27
2019-06-10T00:04:36.766Z,4.10
2019-06-10T00:07:07.383Z,3.70
2019-06-10T00:09:36.909Z,3.80
2019-06-10T00:12:08.127Z,3.27
2019-06-10T00:14:38.006Z,3.80
2019-06-10T00:17:08.028Z,3.30
2019-06-10T00:19:37.458Z,4.10
2019-06-10T00:22:08.080Z,3.73
2019-06-10T00:24:37.820Z,4.50
2019-06-10T00:27:08.395Z,3.53
2019-06-10T00:29:38.016Z,3.80
2019-06-10T00:32:08.527Z,3.83
2019-06-10T00:34:38.316Z,3.40
2019-06-10T00:37:13.577Z,3.80
2019-06-10T00:39:40.855Z,3.80
2019-06-10T00:42:14.612Z,3.90
2019-06-10T00:44:41.653Z,3.10
2019-06-10T00:47:14.420Z,3.13
2019-06-10T00:49:42.061Z,3.63
2019-06-10T00:52:13.823Z,3.60
2019-06-10T00:54:42.729Z,3.40
2019-06-10T00:57:13.635Z,3.20
2019-06-10T00:59:43.159Z,3.77
2019-06-10T01:02:14.328Z,3.50
2019-06-10T01:04:43.574Z,3.60
2019-06-10T01:07:14.754Z,3.90
2019-06-10T01:09:43.974Z,3.63
2019-06-10T01:12:14.886Z,2.80
2019-06-10T01:14:44.403Z,3.90
2019-06-10T01:17:15.483Z,3.80
2019-06-10T01:19:47.788Z,3.67
2019-06-10T01:22:17.386Z,3.80
2019-06-10T01:24:50.983Z,4.40
2019-06-10T01:27:21.231Z,2.93
2019-06-10T01:29:51.174Z,3.30
2019-06-10T01:32:21.731Z,3.20
2019-06-10T01:34:51.229Z,3.20
2019-06-10T01:37:21.773Z,3.70
2019-06-10T01:39:51.657Z,3.60
2019-06-10T01:42:21.605Z,4.23
2019-06-10T01:44:51.068Z,4.00
2019-06-10T01:47:21.549Z,3.07
2019-06-10T01:49:51.732Z,3.40
2019-06-10T01:52:21.259Z,3.47
2019-06-10T01:54:51.505Z,3.13
2019-06-10T01:57:21.885Z,3.50
2019-06-10T01:59:51.468Z,3.90
2019-06-10T02:02:24.109Z,3.90
2019-06-10T02:04:54.036Z,3.70
2019-06-10T02:07:23.926Z,4.23
2019-06-10T02:09:53.325Z,3.70
2019-06-10T02:12:24.176Z,3.20
2019-06-10T02:14:53.728Z,3.60
2019-06-10T02:17:23.908Z,3.83
2019-06-10T02:19:53.525Z,2.93
2019-06-10T02:22:24.348Z,3.80
2019-06-10T02:24:53.981Z,3.97
2019-06-10T02:27:23.381Z,3.33
2019-06-10T02:29:53.577Z,4.67
2019-06-10T02:32:31.976Z,3.20
2019-06-10T02:35:08.144Z,3.90
2019-06-10T02:37:31.796Z,4.13
2019-06-10T02:39:56.107Z,3.83
2019-06-10T02:42:34.821Z,3.93
2019-06-10T02:45:03.631Z,4.50
2019-06-10T02:47:37.617Z,4.23
2019-06-10T02:50:08.313Z,4.00
2019-06-10T02:52:38.572Z,3.77
2019-06-10T02:55:06.216Z,4.00
2019-06-10T02:57:40.114Z,3.70
2019-06-10T03:00:17.001Z,4.43
2019-06-10T03:02:44.579Z,3.40
2019-06-10T03:05:14.219Z,3.97
2019-06-10T03:07:44.333Z,3.60
2019-06-10T03:10:13.951Z,3.47
2019-06-10T03:12:43.324Z,3.70
2019-06-10T03:15:12.728Z,3.57
2019-06-10T03:17:42.949Z,3.60
2019-06-10T03:20:12.523Z,3.40
2019-06-10T03:22:42.343Z,3.70
2019-06-10T03:25:13.102Z,3.10
2019-06-10T03:27:42.597Z,4.23
2019-06-10T03:30:17.107Z,3.73
2019-06-10T03:32:46.928Z,4.03
2019-06-10T03:35:14.575Z,4.50
2019-06-10T03:37:43.869Z,3.90
2019-06-10T03:40:13.361Z,3.33
2019-06-10T03:42:42.929Z,4.27
2019-06-10T03:45:12.822Z,3.87
2019-06-10T03:47:42.771Z,4.70
2019-06-10T03:50:13.235Z,4.90
2019-06-10T03:52:43.333Z,4.00
2019-06-10T03:55:12.792Z,4.77
2019-06-10T03:57:42.446Z,3.90
2019-06-10T04:00:14.099Z,3.87
2019-06-10T04:02:44.022Z,4.07
2019-06-10T04:05:13.484Z,4.00
2019-06-10T04:07:43.173Z,4.47
2019-06-10T04:10:12.837Z,3.93
2019-06-10T04:12:43.480Z,4.73
2019-06-10T04:15:13.220Z,3.63
2019-06-10T04:17:42.951Z,3.97
2019-06-10T04:20:15.471Z,3.70
2019-06-10T04:22:44.446Z,3.53
2019-06-10T04:25:14.270Z,4.00
2019-06-10T04:27:43.552Z,3.80
2019-06-10T04:30:15.830Z,4.27
2019-06-10T04:32:44.244Z,4.10
2019-06-10T04:35:13.885Z,3.93
2019-06-10T04:37:43.209Z,4.30
2019-06-10T04:40:13.304Z,5.27
2019-06-10T04:42:43.568Z,4.43
2019-06-10T04:45:13.712Z,5.37
2019-06-10T04:47:43.270Z,4.83
2019-06-10T04:50:23.639Z,4.47
2019-06-10T04:52:44.081Z,4.60
2019-06-10T04:55:13.944Z,4.47
2019-06-10T04:57:43.316Z,4.30
2019-06-10T05:00:14.689Z,4.07
2019-06-10T05:02:43.721Z,4.67
2019-06-10T05:05:13.612Z,4.87
2019-06-10T05:07:42.983Z,4.73
2019-06-10T05:10:12.554Z,5.60
2019-06-10T05:12:43.324Z,5.00
2019-06-10T05:15:13.093Z,5.47
2019-06-10T05:17:43.684Z,5.37
2019-06-10T05:20:13.867Z,5.23
2019-06-10T05:22:43.351Z,5.37
2019-06-10T05:25:12.965Z,5.47
2019-06-10T05:27:43.052Z,5.77
2019-06-10T05:30:16.851Z,5.10
2019-06-10T05:32:46.259Z,4.90
2019-06-10T05:35:15.585Z,4.90
2019-06-10T05:37:45.232Z,4.90
2019-06-10T05:40:16.547Z,4.87
2019-06-10T05:42:45.833Z,5.13
2019-06-10T05:45:15.142Z,5.03
2019-06-10T05:47:46.043Z,4.87
2019-06-10T05:50:15.259Z,5.13
2019-06-10T05:52:44.544Z,5.50
2019-06-10T05:55:13.951Z,4.47
2019-06-10T05:57:43.264Z,5.40
2019-06-10T06:00:14.953Z,5.73
2019-06-10T06:02:45.231Z,5.83
2019-06-10T06:05:14.683Z,6.20
2019-06-10T06:07:43.986Z,4.70
2019-06-10T06:10:13.672Z,4.77
2019-06-10T06:12:43.052Z,5.43
2019-06-10T06:15:13.070Z,4.90
2019-06-10T06:17:43.175Z,5.37
2019-06-10T06:20:13.456Z,5.20
2019-06-10T06:22:43.843Z,6.70
2019-06-10T06:25:15.254Z,4.83
2019-06-10T06:27:44.982Z,5.57
2019-06-10T06:30:18.680Z,5.30
2019-06-10T06:32:46.249Z,5.70
2019-06-10T06:35:15.572Z,4.63
2019-06-10T06:37:44.853Z,3.80
2019-06-10T06:40:14.560Z,4.90
2019-06-10T06:42:43.861Z,4.80
2019-06-10T06:45:13.401Z,5.00
2019-06-10T06:47:43.924Z,4.17
2019-06-10T06:50:13.670Z,4.97
2019-06-10T06:53:14.650Z,5.30
2019-06-10T06:55:14.751Z,5.90
2019-06-10T06:57:44.077Z,4.33
2019-06-10T07:00:35.374Z,5.07
2019-06-10T07:02:44.936Z,4.20
2019-06-10T07:05:14.308Z,4.33
2019-06-10T07:07:43.996Z,4.80
2019-06-10T07:10:13.337Z,4.53
2019-06-10T07:12:44.492Z,5.20
2019-06-10T07:15:15.674Z,5.40
2019-06-10T07:17:45.817Z,5.43
2019-06-10T07:20:16.512Z,5.07
2019-06-10T07:22:46.708Z,5.23
2019-06-10T07:25:16.437Z,5.40
2019-06-10T07:27:47.037Z,5.27
2019-06-10T07:30:17.202Z,5.43
2019-06-10T07:32:47.528Z,6.07
2019-06-10T07:35:16.974Z,4.57
2019-06-10T07:37:46.614Z,6.70
2019-06-10T07:40:15.946Z,6.93
2019-06-10T07:42:45.543Z,6.97
2019-06-10T07:45:15.131Z,6.80
2019-06-10T07:47:45.648Z,6.67
2019-06-10T07:50:15.613Z,6.40
2019-06-10T07:52:46.718Z,6.30
2019-06-10T07:55:18.664Z,6.10
2019-06-10T07:57:48.129Z,6.20
2019-06-10T08:00:22.634Z,6.37
2019-06-10T08:02:52.980Z,5.30
2019-06-10T08:05:23.548Z,5.40
2019-06-10T08:07:54.766Z,5.83
2019-06-10T08:10:24.066Z,6.23
2019-06-10T08:12:53.561Z,5.80
2019-06-10T08:15:23.071Z,4.97
2019-06-10T08:17:53.192Z,5.30
2019-06-10T08:20:43.814Z,4.47
2019-06-10T08:23:12.967Z,5.40
2019-06-10T08:25:46.842Z,5.60
2019-06-10T08:28:13.527Z,5.13
2019-06-10T08:30:45.880Z,5.83
2019-06-10T08:33:15.072Z,5.10
2019-06-10T08:35:55.803Z,4.97
2019-06-10T08:38:15.745Z,5.03
2019-06-10T08:40:47.974Z,4.53
2019-06-10T08:43:16.434Z,4.70
2019-06-10T08:45:47.111Z,4.93
2019-06-10T08:48:17.213Z,5.37
2019-06-10T08:50:49.930Z,5.50
2019-06-10T08:53:18.381Z,5.03
2019-06-10T08:55:49.305Z,4.50
2019-06-10T08:58:19.056Z,5.50
2019-06-10T09:00:49.531Z,5.30
2019-06-10T09:03:19.040Z,6.03
2019-06-10T09:05:50.707Z,5.00
2019-06-10T09:08:19.372Z,5.60
2019-06-10T09:10:51.612Z,6.47
2019-06-10T09:13:19.731Z,4.73
2019-06-10T09:16:09.178Z,4.33
2019-06-10T09:18:23.082Z,4.30
2019-06-10T09:20:55.299Z,4.70
2019-06-10T09:23:25.331Z,5.20
2019-06-10T09:25:57.074Z,5.70
2019-06-10T09:28:25.189Z,5.00
2019-06-10T09:30:59.243Z,5.60
2019-06-10T09:33:25.735Z,5.47
2019-06-10T09:35:55.552Z,5.37
2019-06-10T09:38:24.841Z,5.20
2019-06-10T09:41:01.414Z,4.90
2019-06-10T09:43:25.587Z,5.93
2019-06-10T09:45:56.529Z,5.13
2019-06-10T09:48:27.122Z,6.00
2019-06-10T09:50:58.666Z,4.93
2019-06-10T09:53:41.171Z,6.13
2019-06-10T09:55:58.544Z,6.67
2019-06-10T09:58:27.957Z,5.67
2019-06-10T10:00:58.703Z,5.37
2019-06-10T10:03:28.075Z,7.07
2019-06-10T10:06:10.236Z,6.83
2019-06-10T10:08:28.608Z,5.73
2019-06-10T10:10:58.900Z,6.87
2019-06-10T10:13:29.040Z,6.13
2019-06-10T10:15:59.787Z,5.73
2019-06-10T10:18:29.109Z,5.67
2019-06-10T10:21:00.452Z,5.03
2019-06-10T10:23:43.329Z,6.60
2019-06-10T10:26:03.418Z,6.90
2019-06-10T10:28:33.508Z,7.03
2019-06-10T10:31:03.919Z,6.97
2019-06-10T10:33:34.065Z,7.80
2019-06-10T10:36:03.458Z,7.00
2019-06-10T10:38:34.565Z,8.87
2019-06-10T10:41:04.807Z,8.50
2019-06-10T10:43:37.609Z,7.20
2019-06-10T10:46:06.056Z,6.27
2019-06-10T10:48:35.718Z,7.10
2019-06-10T10:51:05.106Z,6.17
2019-06-10T10:53:34.782Z,6.47
2019-06-10T10:56:04.979Z,6.47
2019-06-10T10:58:34.475Z,7.83
2019-06-10T11:01:04.898Z,6.67
2019-06-10T11:03:34.592Z,7.30
2019-06-10T11:06:04.699Z,7.50
2019-06-10T11:08:34.100Z,7.10
2019-06-10T11:11:05.285Z,8.07
2019-06-10T11:13:37.210Z,7.20
2019-06-10T11:16:06.597Z,6.87
2019-06-10T11:18:36.130Z,7.23
2019-06-10T11:21:05.828Z,6.60
2019-06-10T11:23:35.176Z,5.63
2019-06-10T11:26:04.616Z,6.93
2019-06-10T11:28:33.927Z,7.40
2019-06-10T11:31:03.968Z,6.37
2019-06-10T11:33:33.781Z,7.07
2019-06-10T11:36:03.552Z,6.57
2019-06-10T11:38:33.209Z,6.90
2019-06-10T11:41:02.676Z,6.43
2019-06-10T11:43:33.125Z,6.33
2019-06-10T11:46:07.191Z,6.10
2019-06-10T11:48:33.813Z,6.70
2019-06-10T11:51:04.914Z,5.90
2019-06-10T11:53:34.771Z,7.90
2019-06-10T11:56:04.737Z,6.33
2019-06-10T11:58:34.279Z,7.40
2019-06-10T12:01:04.132Z,6.53
2019-06-10T12:03:33.746Z,6.40
2019-06-10T12:06:05.463Z,6.90
2019-06-10T12:08:34.329Z,7.07
2019-06-10T12:11:03.718Z,7.50
2019-06-10T12:13:34.508Z,6.20
2019-06-10T12:16:50.779Z,6.53
2019-06-10T12:18:35.251Z,6.77
2019-06-10T12:21:04.676Z,7.60
2019-06-10T12:23:34.012Z,7.10
2019-06-10T12:26:04.858Z,6.90
2019-06-10T12:28:34.644Z,7.70
2019-06-10T12:31:06.823Z,8.53
2019-06-10T12:33:34.994Z,7.50
2019-06-10T12:36:07.167Z,8.43
2019-06-10T12:38:35.804Z,8.73
2019-06-10T12:41:09.570Z,7.93
2019-06-10T12:43:36.152Z,6.40
2019-06-10T12:46:05.449Z,6.03
2019-06-10T12:48:34.767Z,6.53
2019-06-10T12:51:08.247Z,7.40
2019-06-10T12:53:35.203Z,7.50
2019-06-10T12:56:10.387Z,6.20
2019-06-10T12:58:35.558Z,6.80
2019-06-10T13:01:06.212Z,7.67
2019-06-10T13:03:36.231Z,6.97
2019-06-10T13:06:09.809Z,5.87
2019-06-10T13:08:39.644Z,7.50
2019-06-10T13:11:08.970Z,6.77
2019-06-10T13:13:38.289Z,6.40
2019-06-10T13:16:11.385Z,5.00
2019-06-10T13:18:39.766Z,2.97
2019-06-10T13:21:17.159Z,2.47
2019-06-10T13:23:43.447Z,2.70
2019-06-10T13:26:16.427Z,3.03
2019-06-10T13:28:44.569Z,2.63
2019-06-10T13:31:14.252Z,2.50
2019-06-10T13:33:44.231Z,2.30
2019-06-10T13:36:13.690Z,2.57
2019-06-10T13:38:43.122Z,3.50
2019-06-10T13:41:12.516Z,2.90
2019-06-10T13:43:43.493Z,3.10
2019-06-10T13:46:13.012Z,3.73
2019-06-10T13:48:43.210Z,2.70
2019-06-10T13:51:15.497Z,2.80
2019-06-10T13:53:46.186Z,2.30
2019-06-10T13:56:38.290Z,3.10
2019-06-10T13:58:46.426Z,2.27
2019-06-10T14:01:21.422Z,2.40
2019-06-10T14:03:47.047Z,2.30
2019-06-10T14:06:33.399Z,2.50
2019-06-10T14:08:47.460Z,2.87
2019-06-10T14:11:16.737Z,2.30
2019-06-10T14:13:46.030Z,2.30
2019-06-10T14:16:15.352Z,3.30
2019-06-10T14:18:44.691Z,2.43
2019-06-10T14:21:18.248Z,2.87
2019-06-10T14:23:45.036Z,2.37
2019-06-10T14:26:16.944Z,3.00
2019-06-10T14:28:45.395Z,2.40
2019-06-10T14:31:38.288Z,3.80
2019-06-10T14:33:48.107Z,3.13
2019-06-10T14:36:17.435Z,2.43
2019-06-10T14:38:46.802Z,3.30
2019-06-10T14:41:16.537Z,2.90
2019-06-10T14:43:45.901Z,2.93
2019-06-10T14:46:17.417Z,3.13
2019-06-10T14:48:46.316Z,2.80
2019-06-10T14:51:17.070Z,2.67
2019-06-10T14:53:46.739Z,3.27
2019-06-10T14:56:19.380Z,3.10
2019-06-10T14:58:49.570Z,2.97
2019-06-10T15:01:24.541Z,4.03
2019-06-10T15:03:52.164Z,3.83
2019-06-10T15:06:22.738Z,3.47
2019-06-10T15:08:53.324Z,3.40
2019-06-10T15:11:27.307Z,3.60
2019-06-10T15:13:54.593Z,3.10
2019-06-10T15:16:24.010Z,3.23
2019-06-10T15:18:53.444Z,3.43
2019-06-10T15:21:23.282Z,4.10
2019-06-10T15:23:52.931Z,3.60
2019-06-10T15:26:22.219Z,4.57
2019-06-10T15:28:52.201Z,3.93
2019-06-10T15:31:21.832Z,3.80
2019-06-10T15:33:52.490Z,3.90
2019-06-10T15:36:22.015Z,4.30
2019-06-10T15:38:52.549Z,4.00
2019-06-10T15:41:24.531Z,4.10
2019-06-10T15:43:53.286Z,4.33
2019-06-10T15:46:22.633Z,4.77
2019-06-10T15:48:54.134Z,4.50
2019-06-10T15:51:25.921Z,6.43
2019-06-10T15:53:54.046Z,9.07
2019-06-10T15:56:37.335Z,10.17
2019-06-10T15:58:54.896Z,11.27
2019-06-10T16:01:27.048Z,8.93
2019-06-10T16:03:55.249Z,9.00
2019-06-10T16:06:24.597Z,8.37
2019-06-10T16:08:54.269Z,9.03
2019-06-10T16:11:26.782Z,9.10
2019-06-10T16:13:54.594Z,9.70
2019-06-10T16:16:23.885Z,9.80
2019-06-10T16:18:53.186Z,9.53
2019-06-10T16:21:23.727Z,11.57
2019-06-10T16:23:53.538Z,10.27
2019-06-10T16:26:26.507Z,11.10
2019-06-10T16:28:54.314Z,11.80
2019-06-10T16:31:26.858Z,12.50
2019-06-10T16:33:54.874Z,13.10
2019-06-10T16:36:26.342Z,13.80
2019-06-10T16:38:55.640Z,14.30
2019-06-10T16:41:27.832Z,14.07
2019-06-10T16:43:55.989Z,15.03
2019-06-10T16:46:25.347Z,14.77
2019-06-10T16:48:54.672Z,15.47
2019-06-10T16:51:26.246Z,16.27
2019-06-10T16:53:55.622Z,14.27
2019-06-10T16:56:26.431Z,16.23
2019-06-10T16:58:55.995Z,14.67
2019-06-10T17:01:28.275Z,15.17
2019-06-10T17:03:56.349Z,13.10
2019-06-10T17:06:26.793Z,11.67
2019-06-10T17:08:56.210Z,11.10
2019-06-10T17:11:27.467Z,10.40
2019-06-10T17:13:56.556Z,10.50
2019-06-10T17:16:27.610Z,11.93
2019-06-10T17:18:56.939Z,11.40
2019-06-10T17:21:29.686Z,10.60
2019-06-10T17:23:57.252Z,9.03
2019-06-10T17:26:30.567Z,8.20
2019-06-10T17:28:57.677Z,7.83
2019-06-10T17:31:30.530Z,9.40
2019-06-10T17:33:58.074Z,9.97
2019-06-10T17:36:30.390Z,8.77
2019-06-10T17:38:58.453Z,8.67
2019-06-10T17:41:30.285Z,8.03
2019-06-10T17:43:58.770Z,6.60
2019-06-10T17:46:29.488Z,5.60
2019-06-10T17:48:59.536Z,6.13
2019-06-10T17:51:29.828Z,7.00
2019-06-10T17:54:02.299Z,7.40
2019-06-10T17:56:35.541Z,6.47
2019-06-10T17:59:03.371Z,6.70
2019-06-10T18:01:34.218Z,4.40
2019-06-10T18:04:03.929Z,3.20
2019-06-10T18:06:35.835Z,3.40
2019-06-10T18:09:06.231Z,2.90
2019-06-10T18:11:35.864Z,3.10
2019-06-10T18:14:05.423Z,3.27
2019-06-10T18:16:36.553Z,3.27
2019-06-10T18:19:05.755Z,3.53
2019-06-10T18:21:36.375Z,2.87
2019-06-10T18:24:08.497Z,3.23
2019-06-10T18:26:37.876Z,3.77
2019-06-10T18:29:09.391Z,3.30
2019-06-10T18:31:42.710Z,2.20
2019-06-10T18:34:13.184Z,2.67
2019-06-10T18:36:42.857Z,2.93
2019-06-10T18:39:12.677Z,3.27
2019-06-10T18:41:42.163Z,2.60
2019-06-10T18:44:22.621Z,2.50
2019-06-10T18:46:43.524Z,3.00
2019-06-10T18:49:13.462Z,2.53
2019-06-10T18:51:45.203Z,3.00
2019-06-10T18:54:14.569Z,2.77
2019-06-10T18:56:43.855Z,2.37
2019-06-10T18:59:17.902Z,2.90
2019-06-10T19:01:44.228Z,2.97
2019-06-10T19:04:16.249Z,2.20
2019-06-10T19:06:45.688Z,2.60
2019-06-10T19:09:15.014Z,3.07
2019-06-10T19:11:44.547Z,3.00
2019-06-10T19:14:14.205Z,2.60
2019-06-10T19:16:43.517Z,3.50
2019-06-10T19:19:12.975Z,3.00
2019-06-10T19:21:43.956Z,2.87
2019-06-10T19:24:13.719Z,2.67
2019-06-10T19:26:45.044Z,2.93
2019-06-10T19:29:29.610Z,2.80
2019-06-10T19:31:49.114Z,2.87
2019-06-10T19:34:19.508Z,2.83
2019-06-10T19:36:48.901Z,3.47
2019-06-10T19:39:18.325Z,2.57
2019-06-10T19:41:48.201Z,3.30
2019-06-10T19:44:17.568Z,3.03
2019-06-10T19:46:47.267Z,2.93
2019-06-10T19:49:16.950Z,3.20
2019-06-10T19:51:46.986Z,3.23
2019-06-10T19:54:16.506Z,2.90
2019-06-10T19:56:46.169Z,3.07
2019-06-10T19:59:15.448Z,3.30
2019-06-10T20:01:47.921Z,3.50
2019-06-10T20:04:18.173Z,3.53
2019-06-10T20:06:50.556Z,5.07
2019-06-10T20:09:18.769Z,3.80
2019-06-10T20:11:48.221Z,2.73
2019-06-10T20:14:17.657Z,3.30
2019-06-10T20:16:48.151Z,3.67
2019-06-10T20:19:22.439Z,3.23
2019-06-10T20:21:51.537Z,3.50
2019-06-10T20:24:22.285Z,3.37
2019-06-10T20:26:52.930Z,3.40
2019-06-10T20:29:22.433Z,3.80
2019-06-10T20:31:52.377Z,4.03
2019-06-10T20:34:25.291Z,4.33
2019-06-10T20:36:53.299Z,3.70
2019-06-10T20:39:24.800Z,3.70
2019-06-10T20:41:55.805Z,3.63
2019-06-10T20:44:25.473Z,3.90
2019-06-10T20:46:55.868Z,4.33
2019-06-10T20:49:25.174Z,4.33
2019-06-10T20:52:06.699Z,4.33
2019-06-10T20:54:25.507Z,4.03
2019-06-10T20:56:54.840Z,3.50
2019-06-10T20:59:27.264Z,4.17
2019-06-10T21:01:57.061Z,4.13
2019-06-10T21:04:26.428Z,4.00
2019-06-10T21:06:57.204Z,4.20
2019-06-10T21:09:28.109Z,3.60
2019-06-10T21:11:57.410Z,4.20
2019-06-10T21:14:27.025Z,4.97
2019-06-10T21:16:56.240Z,4.60
2019-06-10T21:19:26.046Z,3.30
2019-06-10T21:21:55.450Z,3.63
2019-06-10T21:24:24.794Z,3.80
2019-06-10T21:26:54.814Z,4.00
2019-06-10T21:29:24.366Z,3.90
2019-06-10T21:31:54.789Z,3.30
2019-06-10T21:34:24.660Z,4.03
2019-06-10T21:36:54.478Z,3.60
2019-06-10T21:39:24.260Z,4.37
2019-06-10T21:41:54.550Z,3.93
2019-06-10T21:44:24.138Z,4.00
2019-06-10T21:46:53.531Z,5.50
2019-06-10T21:49:23.732Z,5.00
2019-06-10T21:51:56.803Z,5.40
2019-06-10T21:54:25.507Z,4.63
2019-06-10T21:56:55.511Z,4.13
2019-06-10T21:59:25.183Z,4.83
2019-06-10T22:01:54.504Z,5.70
2019-06-10T22:04:23.798Z,4.80
2019-06-10T22:06:55.982Z,4.73
2019-06-10T22:09:24.682Z,4.27
2019-06-10T22:11:55.689Z,4.40
2019-06-10T22:14:25.383Z,5.07
2019-06-10T22:16:56.405Z,5.60
2019-06-10T22:19:25.686Z,4.73
2019-06-10T22:21:56.600Z,4.60
2019-06-10T22:24:25.953Z,5.30
2019-06-10T22:26:55.270Z,5.30
2019-06-10T22:29:24.577Z,4.80
2019-06-10T22:31:55.279Z,5.10
2019-06-10T22:34:24.905Z,5.50
2019-06-10T22:36:55.690Z,5.60
2019-06-10T22:39:25.294Z,6.10
2019-06-10T22:41:56.642Z,5.83
2019-06-10T22:44:25.621Z,6.17
2019-06-10T22:46:55.687Z,6.10
2019-06-10T22:49:25.969Z,5.50
2019-06-10T22:51:58.291Z,6.77
2019-06-10T22:54:26.468Z,6.13
2019-06-10T22:56:58.026Z,7.17
2019-06-10T22:59:27.142Z,6.27
2019-06-10T23:01:57.163Z,7.00
2019-06-10T23:04:28.056Z,6.87
2019-06-10T23:06:58.377Z,6.50
2019-06-10T23:09:29.063Z,7.20
2019-06-10T23:11:59.234Z,6.87
2019-06-10T23:14:28.726Z,6.13
2019-06-10T23:16:59.927Z,6.07
2019-06-10T23:19:29.505Z,7.00
2019-06-10T23:21:59.907Z,6.37
2019-06-10T23:24:32.252Z,6.97
2019-06-10T23:27:03.184Z,5.80
2019-06-10T23:29:32.771Z,6.07
2019-06-10T23:32:06.823Z,6.33
2019-06-10T23:34:33.359Z,6.00
2019-06-10T23:37:02.722Z,6.70
2019-06-10T23:39:33.471Z,6.43
2019-06-10T23:42:04.312Z,5.10
2019-06-10T23:44:33.853Z,6.10
2019-06-10T23:47:04.084Z,5.80
2019-06-10T23:49:33.730Z,6.30
2019-06-10T23:52:04.858Z,5.40
2019-06-10T23:54:34.129Z,5.90
2019-06-10T23:57:05.815Z,5.80
2019-06-10T23:59:34.750Z,5.63
